Time;durP1;ratioP1;P1;durP2;ratioP2;P2;SDS_P1;SDS_P2;PMS_P1;PMS_P2;Temp;Humidity;BMP_temperature;BMP_pressure;BME280_temperature;BME280_humidity;BME280_pressure;Samples;Min_cycle;Max_cycle;Signal;HPM_P1;HPM_P2
2021/03/23 00:00:20;179748.00;0.60;311.06;0.00;0.00;0.62;;;;;10.80;1.00;;;;;;2231274;62;1304;-89
2021/03/23 00:02:49;157146.00;0.52;272.12;0.00;0.00;0.62;;;;;10.90;1.00;;;;;;2236530;62;1025;-88
2021/03/23 00:05:16;438701.00;1.46;756.35;57983.00;0.19;100.99;;;;;11.30;1.00;;;;;;2239362;62;977;-88
2021/03/23 00:07:43;161014.00;0.54;278.79;0.00;0.00;0.62;;;;;11.40;1.00;;;;;;2240432;62;1004;-87
2021/03/23 00:10:23;217419.00;0.72;375.90;0.00;0.00;0.62;;;;;11.50;1.00;;;;;;2241326;61;1267;-90
2021/03/23 00:12:52;338196.00;1.13;583.57;0.00;0.00;0.62;;;;;11.90;1.00;;;;;;2236453;62;990;-88
2021/03/23 00:15:22;134822.00;0.45;233.64;0.00;0.00;0.62;;;;;12.30;1.00;;;;;;2236535;62;1102;-88
2021/03/23 00:17:50;173678.00;0.58;300.60;0.00;0.00;0.62;;;;;12.60;1.00;;;;;;2231435;62;2006;-87
2021/03/23 00:20:20;229861.00;0.77;397.31;0.00;0.00;0.62;;;;;12.50;1.00;;;;;;2237582;62;1377;-88
2021/03/23 00:22:47;318665.00;1.06;550.00;55164.00;0.18;96.12;;;;;12.50;1.00;;;;;;2241576;61;1116;-88
2021/03/23 00:25:14;117120560.00;390.40;65076648.00;107775.00;0.36;186.99;;;;;12.60;1.00;;;;;;2240390;62;967;-88
2021/03/23 00:27:40;294663.00;0.98;508.75;0.00;0.00;0.62;;;;;12.50;1.00;;;;;;2240597;62;1784;-88
2021/03/23 00:30:13;460651.00;1.54;794.10;33691.00;0.11;58.97;;;;;12.30;1.00;;;;;;2241823;61;1295;-89
2021/03/23 00:32:40;354677.00;1.18;611.90;45541.00;0.15;79.47;;;;;12.00;1.00;;;;;;2240432;61;1043;-89
2021/03/23 00:35:09;474589.00;1.58;818.09;77630.00;0.26;134.94;;;;;11.70;1.00;;;;;;2241971;61;1048;-89
2021/03/23 00:37:37;375639.00;1.25;647.93;79579.00;0.27;138.31;;;;;11.90;1.00;;;;;;2240297;61;1987;-87
2021/03/23 00:40:06;213067.00;0.71;368.41;84066.00;0.28;146.06;;;;;12.00;1.00;;;;;;2233779;62;1468;-89
2021/03/23 00:42:34;443080.00;1.48;763.88;88518.00;0.30;153.75;;;;;12.00;1.00;;;;;;2241244;61;990;-89
2021/03/23 00:45:01;294980.00;0.98;509.29;73156.00;0.24;127.21;;;;;11.80;1.00;;;;;;2240322;62;968;-88
2021/03/23 00:47:28;398360.00;1.33;686.99;72772.00;0.24;126.55;;;;;12.00;1.00;;;;;;2240364;62;1002;-90
2021/03/23 00:49:55;482035.00;1.61;830.90;75302.00;0.25;130.92;;;;;12.30;1.00;;;;;;2242259;61;1336;-88
2021/03/23 00:52:22;460218.00;1.53;793.36;71312.00;0.24;124.03;;;;;12.20;1.00;;;;;;2244242;62;1083;-89
2021/03/23 00:54:50;462161.00;1.54;796.70;90019.00;0.30;156.34;;;;;11.70;1.00;;;;;;2236969;62;959;-89
2021/03/23 00:57:17;528840.00;1.76;911.49;99801.00;0.33;173.23;;;;;11.60;1.00;;;;;;2230656;62;2010;-90
2021/03/23 00:59:43;334889.00;1.12;577.89;50578.00;0.17;88.19;;;;;11.70;1.00;;;;;;2240343;62;1350;-87
2021/03/23 01:02:11;395717.00;1.32;682.44;77910.00;0.26;135.43;;;;;11.30;1.00;;;;;;2236362;62;969;-88
2021/03/23 01:04:37;297808.00;0.99;514.15;70431.00;0.23;122.51;;;;;11.00;1.00;;;;;;2236416;62;1049;-86
2021/03/23 01:07:05;194349.00;0.65;336.20;78615.00;0.26;136.64;;;;;10.80;1.00;;;;;;2236398;62;1036;-86
2021/03/23 01:09:34;478456.00;1.59;824.74;57584.00;0.19;100.30;;;;;10.90;1.00;;;;;;2231489;61;1031;-88
2021/03/23 01:12:00;559478.00;1.86;964.30;78513.00;0.26;136.47;;;;;10.80;1.00;;;;;;2249941;61;1401;-86
2021/03/23 01:14:27;412002.00;1.37;710.44;49748.00;0.17;86.75;;;;;10.80;1.00;;;;;;2260202;61;989;-88
2021/03/23 01:16:55;233547.00;0.78;403.65;0.00;0.00;0.62;;;;;10.90;1.00;;;;;;2253509;61;1947;-86
2021/03/23 01:19:32;387632.00;1.29;668.54;18765.00;0.06;33.13;;;;;10.90;1.00;;;;;;2260121;61;1023;-89
2021/03/23 01:21:59;589677.00;1.97;1016.40;74643.00;0.25;129.78;;;;;10.90;1.00;;;;;;2256026;61;1402;-88
2021/03/23 01:24:27;216287.00;0.72;373.95;24391.00;0.08;42.87;;;;;11.00;1.00;;;;;;2256181;61;1023;-88
2021/03/23 01:26:54;360266.00;1.20;621.51;79977.00;0.27;139.00;;;;;11.30;1.00;;;;;;2256176;61;1151;-88
2021/03/23 01:29:20;474140.00;1.58;817.31;72585.00;0.24;126.23;;;;;11.60;1.00;;;;;;2252084;61;981;-86
2021/03/23 01:31:49;215570.00;0.72;372.72;41792.00;0.14;72.99;;;;;11.60;1.00;;;;;;2252059;61;1384;-88
2021/03/23 01:34:18;179010.00;0.60;309.78;0.00;0.00;0.62;;;;;11.20;1.00;;;;;;2244088;61;966;-87
2021/03/23 01:36:44;325178.00;1.08;561.20;107008.00;0.36;185.67;;;;;11.00;1.00;;;;;;2243682;61;1920;-88
2021/03/23 01:39:11;252327.00;0.84;435.95;0.00;0.00;0.62;;;;;10.70;1.00;;;;;;2237543;62;991;-87
2021/03/23 01:41:38;194341.00;0.65;336.18;0.00;0.00;0.62;;;;;11.00;1.00;;;;;;2244162;61;1346;-88
2021/03/23 01:44:06;222317.00;0.74;384.33;0.00;0.00;0.62;;;;;11.30;1.00;;;;;;2244187;61;990;-87
2021/03/23 01:46:40;437724.00;1.46;754.67;36649.00;0.12;64.09;;;;;11.10;1.00;;;;;;2248564;61;935;-88
2021/03/23 01:49:11;125025944.00;416.75;79178024.00;19883.00;0.07;35.07;;;;;11.00;1.00;;;;;;2252137;61;1000;-88
2021/03/23 01:51:38;139286.00;0.46;241.34;5286.00;0.02;9.78;;;;;11.20;1.00;;;;;;2254703;61;1462;-88
2021/03/23 01:54:11;144897.00;0.48;251.01;0.00;0.00;0.62;;;;;11.00;1.00;;;;;;2264498;61;931;-87
2021/03/23 01:56:38;225894.00;0.75;390.48;0.00;0.00;0.62;;;;;11.10;1.00;;;;;;2264531;61;1046;-87
2021/03/23 01:59:08;329010.00;1.10;567.78;0.00;0.00;0.62;;;;;11.20;1.00;;;;;;2264530;61;1019;-87
2021/03/23 02:01:36;293544.00;0.98;506.82;30490.00;0.10;53.43;;;;;11.10;1.00;;;;;;2260737;61;1351;-89
2021/03/23 02:04:04;83849.00;0.28;145.69;0.00;0.00;0.62;;;;;11.10;1.00;;;;;;2264541;61;999;-87
2021/03/23 02:06:37;404125.00;1.35;696.90;82342.00;0.27;143.08;;;;;11.10;1.00;;;;;;2260726;61;988;-87
2021/03/23 02:09:09;275189.00;0.92;475.27;0.00;0.00;0.62;;;;;10.80;1.00;;;;;;2264432;61;1028;-88
2021/03/23 02:11:43;221804.00;0.74;383.45;11681.00;0.04;20.86;;;;;10.70;1.00;;;;;;2264490;61;1393;-87
2021/03/23 02:14:11;428147.00;1.43;738.20;80126.00;0.27;139.25;;;;;10.70;1.00;;;;;;2264543;61;994;-88
2021/03/23 02:16:37;522737.00;1.74;900.98;74897.00;0.25;130.22;;;;;10.60;1.00;;;;;;2259987;61;1002;-88
2021/03/23 02:19:07;341670.00;1.14;589.54;76815.00;0.26;133.54;;;;;10.60;1.00;;;;;;2260000;61;1935;-86
2021/03/23 02:21:36;571575.00;1.91;985.16;135812.00;0.45;235.35;;;;;10.60;1.00;;;;;;2260021;61;1431;-88
2021/03/23 02:24:03;415104.00;1.38;715.77;72085.00;0.24;125.36;;;;;10.60;1.00;;;;;;2259972;61;1150;-88
2021/03/23 02:26:34;441832.00;1.47;761.73;74827.00;0.25;130.10;;;;;10.50;1.00;;;;;;2251944;61;1018;-87
2021/03/23 02:29:04;267622.00;0.89;462.26;74003.00;0.25;128.68;;;;;10.40;1.00;;;;;;2243963;61;1061;-88
2021/03/23 02:31:33;509377.00;1.70;877.97;121741.00;0.41;211.09;;;;;10.00;1.00;;;;;;2243983;61;1363;-88
2021/03/23 02:34:00;300511.00;1.00;518.80;83905.00;0.28;145.78;;;;;10.10;1.00;;;;;;2245693;61;1437;-88
2021/03/23 02:36:31;610633.00;2.04;1052.58;72820.00;0.24;126.63;;;;;10.30;1.00;;;;;;2251922;61;959;-89
2021/03/23 02:38:58;593802.00;1.98;1023.52;118054.00;0.39;204.73;;;;;10.70;1.00;;;;;;2251959;61;1936;-87
2021/03/23 02:41:25;550060.00;1.83;948.06;73693.00;0.25;128.14;;;;;10.90;1.00;;;;;;2251907;61;1310;-87
2021/03/23 02:43:51;346362.00;1.15;597.61;81917.00;0.27;142.35;;;;;10.80;1.00;;;;;;2253693;61;951;-86
2021/03/23 02:46:19;439335.00;1.46;757.44;103647.00;0.35;179.87;;;;;10.70;1.00;;;;;;2248602;61;1253;-87
2021/03/23 02:48:45;587486.00;1.96;1012.62;112425.00;0.37;195.01;;;;;10.60;1.00;;;;;;2251899;61;1008;-88
2021/03/23 02:51:13;213103.00;0.71;368.48;77109.00;0.26;134.04;;;;;10.40;1.00;;;;;;2251799;61;1447;-87
2021/03/23 02:53:40;272835.00;0.91;471.22;74862.00;0.25;130.16;;;;;10.40;1.00;;;;;;2251864;61;1782;-87
2021/03/23 02:56:08;355995.00;1.19;614.17;87735.00;0.29;152.40;;;;;10.30;1.00;;;;;;2251973;61;932;-88
2021/03/23 02:58:35;477142.00;1.59;822.48;134565.00;0.45;233.20;;;;;10.50;1.00;;;;;;2251915;61;2013;-87
2021/03/23 03:01:02;333543.00;1.11;575.58;79851.00;0.27;138.78;;;;;10.00;1.00;;;;;;2251863;61;1417;-86
2021/03/23 03:03:29;505092.00;1.68;870.59;89772.00;0.30;155.91;;;;;9.90;1.00;;;;;;2253864;61;1133;-87
2021/03/23 03:05:59;440625.00;1.47;759.66;107752.00;0.36;186.95;;;;;9.90;1.00;;;;;;2265064;61;1088;-87
2021/03/23 03:08:26;120205024.00;400.68;70359736.00;109332.00;0.36;189.68;;;;;10.00;1.00;;;;;;2264933;61;1032;-86
2021/03/23 03:10:53;493911.00;1.65;851.34;147650.00;0.49;255.76;;;;;10.10;1.00;;;;;;2265005;61;1353;-87
2021/03/23 03:13:23;457764.00;1.53;789.14;77031.00;0.26;133.91;;;;;10.30;1.00;;;;;;2265013;61;986;-87
2021/03/23 03:15:50;335193.00;1.12;578.41;84406.00;0.28;146.65;;;;;10.20;1.00;;;;;;2265049;61;1001;-86
2021/03/23 03:18:17;580888.00;1.94;1001.23;73423.00;0.24;127.68;;;;;10.20;1.00;;;;;;2265034;61;1909;-87
2021/03/23 03:20:44;774928.00;2.58;1337.43;131404.00;0.44;227.75;;;;;10.20;1.00;;;;;;2265002;61;1401;-86
2021/03/23 03:23:11;605089.00;2.02;1043.01;80840.00;0.27;140.49;;;;;10.20;1.00;;;;;;2264974;61;1595;-87
2021/03/23 03:25:37;903055.00;3.01;1561.49;228437.00;0.76;394.86;;;;;10.20;1.00;;;;;;2264905;61;941;-87
2021/03/23 03:46:11;693662.00;2.31;1196.25;0.00;0.00;0.62;;;;;9.40;1.00;;;;;;2262388;61;1275;-86
2021/03/23 03:48:38;471074.00;1.57;812.04;98558.00;0.33;171.08;;;;;9.60;1.00;;;;;;2260956;61;920;-87
2021/03/23 03:51:05;319051.00;1.06;550.67;0.00;0.00;0.62;;;;;9.30;1.00;;;;;;2262537;61;1611;-87
2021/03/23 03:53:31;142414.00;0.47;246.73;95.00;0.00;0.78;;;;;9.20;1.00;;;;;;2260841;61;1482;-89
2021/03/23 03:55:58;292624.00;0.98;505.24;597.00;0.00;1.65;;;;;9.20;1.00;;;;;;2260816;61;1778;-89
2021/03/23 03:58:26;239635.00;0.80;414.12;74927.00;0.25;130.27;;;;;9.30;1.00;;;;;;2260891;61;1914;-88
2021/03/23 04:00:53;240822.00;0.80;416.17;34143.00;0.11;59.75;;;;;9.20;1.00;;;;;;2260881;61;1305;-87
2021/03/23 04:03:23;172925.00;0.58;299.30;0.00;0.00;0.62;;;;;9.10;1.00;;;;;;2260823;61;989;-88
2021/03/23 04:05:52;168588.00;0.56;291.83;0.00;0.00;0.62;;;;;9.30;1.00;;;;;;2260899;61;1018;-88
2021/03/23 04:08:22;29532.00;0.10;51.77;0.00;0.00;0.62;;;;;9.60;1.00;;;;;;2260920;61;1006;-88
2021/03/23 04:10:49;126068.00;0.42;218.55;0.00;0.00;0.62;;;;;9.30;1.00;;;;;;2250564;61;1334;-89
2021/03/23 04:13:17;90749.00;0.30;157.60;0.00;0.00;0.62;;;;;9.80;1.00;;;;;;2260820;61;1045;-89
2021/03/23 04:15:47;367156.00;1.22;633.35;12204.00;0.04;21.77;;;;;9.80;1.00;;;;;;2260621;61;1059;-88
2021/03/23 04:18:16;208440.00;0.69;360.45;0.00;0.00;0.62;;;;;9.60;1.00;;;;;;2260697;61;2009;-88
2021/03/23 04:20:43;265636.00;0.89;458.84;0.00;0.00;0.62;;;;;10.00;1.00;;;;;;2260816;61;1419;-88
2021/03/23 04:23:20;292938.00;0.98;505.78;62497.00;0.21;108.79;;;;;10.10;1.00;;;;;;2250577;61;1014;-88
2021/03/23 04:25:47;75413.00;0.25;131.11;0.00;0.00;0.62;;;;;10.20;1.00;;;;;;2253818;61;953;-88
2021/03/23 04:28:13;173698.00;0.58;300.64;0.00;0.00;0.62;;;;;10.30;1.00;;;;;;2248352;61;938;-88
2021/03/23 04:30:40;196367.00;0.65;339.67;96073.00;0.32;166.79;;;;;10.30;1.00;;;;;;2248224;61;1411;-89
2021/03/23 04:33:06;190686.00;0.64;329.89;0.00;0.00;0.62;;;;;10.30;1.00;;;;;;2248457;61;1009;-87
2021/03/23 04:35:45;183425.00;0.61;317.39;0.00;0.00;0.62;;;;;10.50;1.00;;;;;;2248429;61;1051;-89
2021/03/23 04:38:17;413302.00;1.38;712.67;37330.00;0.12;65.27;;;;;10.20;1.00;;;;;;2248385;61;1920;-88
2021/03/23 04:40:44;192490.00;0.64;333.00;32373.00;0.11;56.69;;;;;10.20;1.00;;;;;;2248269;61;1710;-88
2021/03/23 04:43:18;325192.00;1.08;561.22;0.00;0.00;0.62;;;;;10.30;1.00;;;;;;2248277;61;1770;-88
2021/03/23 04:45:45;161579.00;0.54;279.76;0.00;0.00;0.62;;;;;10.50;1.00;;;;;;2251986;61;1710;-86
2021/03/23 04:48:12;264934.00;0.88;457.63;6464.00;0.02;11.82;;;;;10.70;1.00;;;;;;2260671;61;1672;-87
2021/03/23 04:50:38;166488.00;0.55;288.22;0.00;0.00;0.62;;;;;10.40;1.00;;;;;;2260686;61;1358;-86
2021/03/23 04:53:05;219680.00;0.73;379.79;13656.00;0.05;24.28;;;;;10.60;1.00;;;;;;2260713;61;1073;-88
2021/03/23 04:55:32;25346.00;0.08;44.53;0.00;0.00;0.62;;;;;10.90;1.00;;;;;;2260643;61;1088;-88
2021/03/23 04:57:58;198732.00;0.66;343.74;0.00;0.00;0.62;;;;;11.10;1.00;;;;;;2256160;61;1994;-88
2021/03/23 05:00:25;255315.00;0.85;441.09;84965.00;0.28;147.61;;;;;11.30;1.00;;;;;;2256238;61;1314;-86
2021/03/23 05:02:52;232440.00;0.77;401.75;0.00;0.00;0.62;;;;;11.70;1.00;;;;;;2256193;61;1758;-87
2021/03/23 05:05:19;0.00;0.00;0.62;0.00;0.00;0.62;;;;;11.80;1.00;;;;;;2256232;61;1009;-88
2021/03/23 05:07:45;276038.00;0.92;476.73;0.00;0.00;0.62;;;;;11.60;1.00;;;;;;2256204;61;1588;-87
2021/03/23 05:10:13;120204.00;0.40;208.43;47571.00;0.16;82.99;;;;;11.60;1.00;;;;;;2244273;61;1424;-87
2021/03/23 05:12:40;78429.00;0.26;136.32;0.00;0.00;0.62;;;;;11.70;1.00;;;;;;2244217;61;1609;-87
2021/03/23 05:15:10;41554.00;0.14;72.58;0.00;0.00;0.62;;;;;11.90;1.00;;;;;;2244725;61;1052;-86
2021/03/23 05:17:36;110706.00;0.37;192.05;0.00;0.00;0.62;;;;;11.80;1.00;;;;;;2248141;61;1919;-87
2021/03/23 05:20:06;217574.00;0.73;376.17;50955.00;0.17;88.84;;;;;11.90;1.00;;;;;;2248134;61;1418;-87
2021/03/23 05:22:33;295673.00;0.99;510.48;34750.00;0.12;60.80;;;;;11.70;1.00;;;;;;2248209;61;1121;-87
2021/03/23 05:24:59;88579.00;0.30;153.85;0.00;0.00;0.62;;;;;12.20;1.00;;;;;;2248193;61;1035;-89
2021/03/23 05:27:27;563317.00;1.88;970.92;82288.00;0.27;142.99;;;;;12.30;1.00;;;;;;2248074;61;1579;-88
2021/03/23 05:29:53;13803.00;0.05;24.54;0.00;0.00;0.62;;;;;12.10;1.00;;;;;;2248197;61;1317;-88
2021/03/23 05:32:19;85468.00;0.28;148.48;0.00;0.00;0.62;;;;;11.80;1.00;;;;;;2248151;61;1027;-87
2021/03/23 05:34:46;163245.00;0.54;282.63;0.00;0.00;0.62;;;;;11.70;1.00;;;;;;2247812;61;1748;-86
2021/03/23 05:37:15;0.00;0.00;0.62;0.00;0.00;0.62;;;;;11.40;1.00;;;;;;2241166;62;1920;-87
2021/03/23 05:39:42;217028.00;0.72;375.23;19170.00;0.06;33.83;;;;;11.30;1.00;;;;;;2248101;61;1699;-88
2021/03/23 05:42:20;338934.00;1.13;584.84;0.00;0.00;0.62;;;;;11.30;1.00;;;;;;2248131;61;1643;-88
2021/03/23 05:44:57;63655.00;0.21;110.79;0.00;0.00;0.62;;;;;11.10;1.00;;;;;;2248072;61;985;-87
2021/03/23 05:47:33;60028.00;0.20;104.53;0.00;0.00;0.62;;;;;11.40;1.00;;;;;;2248187;61;1025;-86
2021/03/23 05:50:12;75026.00;0.25;130.44;0.00;0.00;0.62;;;;;11.80;1.00;;;;;;2248086;61;1571;-89
2021/03/23 05:52:43;103122.00;0.34;178.96;0.00;0.00;0.62;;;;;12.20;1.00;;;;;;2254762;61;1137;-87
2021/03/23 05:55:31;212353.00;0.71;367.18;30932.00;0.10;54.20;;;;;12.10;1.00;;;;;;2259940;61;1718;-87
2021/03/23 05:58:00;105152.00;0.35;182.46;0.00;0.00;0.62;;;;;11.80;1.00;;;;;;2263935;61;2004;-89
2021/03/23 06:00:37;156941.00;0.52;271.77;0.00;0.00;0.62;;;;;11.80;1.00;;;;;;2263936;61;1487;-88
2021/03/23 06:03:18;326418.00;1.09;563.33;0.00;0.00;0.62;;;;;11.80;1.00;;;;;;2261766;61;1769;-86
2021/03/23 06:05:47;279156.00;0.93;482.09;51691.00;0.17;90.11;;;;;11.90;1.00;;;;;;2260439;61;1681;-87
2021/03/23 06:08:25;255927.00;0.85;442.14;0.00;0.00;0.62;;;;;11.70;1.00;;;;;;2260488;61;1108;-88
2021/03/23 06:11:27;559460.00;1.86;964.27;83872.00;0.28;145.73;;;;;11.80;1.00;;;;;;2260464;61;1422;-87
2021/03/23 06:14:03;370833.00;1.24;639.67;37958.00;0.13;66.36;;;;;11.80;1.00;;;;;;2260452;61;1667;-87
2021/03/23 06:16:41;74119.00;0.25;128.88;0.00;0.00;0.62;;;;;12.20;1.00;;;;;;2260543;61;951;-88
2021/03/23 06:19:18;274490.00;0.91;474.06;0.00;0.00;0.62;;;;;12.20;1.00;;;;;;2260377;61;2023;-89
2021/03/23 06:21:50;372102.00;1.24;641.85;99246.00;0.33;172.27;;;;;12.40;1.00;;;;;;2260430;61;1497;-87
2021/03/23 06:24:26;204444.00;0.68;353.57;0.00;0.00;0.62;;;;;12.20;1.00;;;;;;2260460;61;996;-86
2021/03/23 06:27:08;267494.00;0.89;462.03;0.00;0.00;0.62;;;;;12.30;1.00;;;;;;2260351;61;1039;-87
2021/03/23 06:30:12;375944.00;1.25;648.45;21222.00;0.07;37.39;;;;;12.50;1.00;;;;;;2260356;61;1038;-87
2021/03/23 06:32:46;296145.00;0.99;511.29;0.00;0.00;0.62;;;;;12.70;1.00;;;;;;2260391;61;982;-87
2021/03/23 06:35:17;452364.00;1.51;779.85;87107.00;0.29;151.31;;;;;12.90;1.00;;;;;;2260419;61;1147;-88
2021/03/23 06:37:44;118010.00;0.39;204.65;0.00;0.00;0.62;;;;;13.10;1.00;;;;;;2260207;61;1981;-89
2021/03/23 06:40:13;192155.00;0.64;332.42;0.00;0.00;0.62;;;;;13.00;1.00;;;;;;2260397;61;1412;-88
2021/03/23 06:42:43;289190.00;0.96;499.34;74172.00;0.25;128.97;;;;;13.00;1.00;;;;;;2260423;61;1016;-88
2021/03/23 06:45:36;451786.00;1.51;778.85;54960.00;0.18;95.76;;;;;12.60;1.00;;;;;;2251897;61;970;-88
2021/03/23 06:48:24;68707.00;0.23;119.53;0.00;0.00;0.62;;;;;12.70;1.00;;;;;;2251452;61;1042;-89
2021/03/23 06:51:05;163192.00;0.54;282.54;0.00;0.00;0.62;;;;;12.60;1.00;;;;;;2252186;61;1411;-88
2021/03/23 06:53:31;193288.00;0.64;334.37;0.00;0.00;0.62;;;;;12.60;1.00;;;;;;2259808;61;1534;-88
2021/03/23 06:56:17;303812.00;1.01;524.47;59304.00;0.20;103.27;;;;;12.90;1.00;;;;;;2259939;61;1015;-88
2021/03/23 06:58:43;65983.00;0.22;114.82;0.00;0.00;0.62;;;;;13.10;1.00;;;;;;2259841;61;1916;-89
2021/03/23 07:01:15;337503.00;1.13;582.38;70165.00;0.23;122.05;;;;;13.30;1.00;;;;;;2259817;61;1427;-89
2021/03/23 07:03:44;327651.00;1.09;565.45;113852.00;0.38;197.48;;;;;13.20;1.00;;;;;;2263141;61;1077;-87
2021/03/23 07:06:24;339722.00;1.13;586.20;36215.00;0.12;63.34;;;;;13.40;1.00;;;;;;2264083;61;1605;-88
2021/03/23 07:09:13;170405.00;0.57;294.96;50799.00;0.17;88.57;;;;;12.90;1.00;;;;;;2264388;61;1037;-88
2021/03/23 07:11:51;297255.00;0.99;513.20;36091.00;0.12;63.12;;;;;12.80;1.00;;;;;;2259570;61;1352;-88
2021/03/23 07:14:26;127971.00;0.43;221.83;0.00;0.00;0.62;;;;;12.70;1.00;;;;;;2251846;61;936;-89
2021/03/23 07:17:06;15496.00;0.05;27.47;0.00;0.00;0.62;;;;;12.80;1.00;;;;;;2251665;61;1000;-88
2021/03/23 07:19:45;259549.00;0.87;448.37;73069.00;0.24;127.06;;;;;13.00;1.00;;;;;;2239948;62;1933;-89
2021/03/23 07:22:19;726069.00;2.42;1252.48;72538.00;0.24;126.15;;;;;13.20;1.00;;;;;;2239766;62;1004;-89
2021/03/23 07:24:52;505143.00;1.68;870.68;79715.00;0.27;138.54;;;;;13.30;1.00;;;;;;2232103;62;992;-89
2021/03/23 07:27:20;242239.00;0.81;418.60;29264.00;0.10;51.31;;;;;13.50;1.00;;;;;;2232170;62;1527;-89
2021/03/23 07:29:47;216758.00;0.72;374.77;0.00;0.00;0.62;;;;;13.10;1.00;;;;;;2234140;62;1677;-90
2021/03/23 07:32:38;127354.00;0.42;220.77;0.00;0.00;0.62;;;;;13.20;1.00;;;;;;2233611;62;1028;-88
2021/03/23 07:35:22;232628.00;0.78;402.07;0.00;0.00;0.62;;;;;12.60;1.00;;;;;;2236645;62;1031;-89
2021/03/23 07:37:56;469725.00;1.57;809.72;81129.00;0.27;140.99;;;;;12.90;1.00;;;;;;2247202;61;1920;-90
2021/03/23 07:40:36;387782.00;1.29;668.80;116536.00;0.39;202.11;;;;;12.60;1.00;;;;;;2251851;61;1694;-90
2021/03/23 07:45:58;686432.00;2.29;1183.72;88091.00;0.29;153.01;;;;;13.00;1.00;;;;;;2262120;61;1294;-89
2021/03/23 07:53:34;1216221.00;4.05;2119.58;13685.00;0.05;24.33;;;;;13.10;1.00;;;;;;2258975;61;1326;-93
2021/03/23 08:06:06;1744406.00;5.81;3112.03;11597.00;0.04;20.72;;;;;13.00;1.00;;;;;;2251995;61;999;-90
2021/03/23 08:13:47;1754328.00;5.85;3131.48;160042.00;0.53;277.11;;;;;12.20;1.00;;;;;;2258825;61;1313;-92
2021/03/23 08:19:19;1545314.00;5.15;2728.68;183727.00;0.61;317.91;;;;;12.90;1.00;;;;;;2263168;61;1941;-94
2021/03/23 08:27:06;1504262.00;5.01;2651.14;120843.00;0.40;209.54;;;;;12.30;1.00;;;;;;2263060;61;1118;-95
2021/03/23 08:42:01;763880.00;2.55;1318.20;0.00;0.00;0.62;;;;;12.10;1.00;;;;;;2259263;61;1431;-89
2021/03/23 08:54:50;1789261.00;5.96;3200.21;60758.00;0.20;105.79;;;;;12.30;1.00;;;;;;2262955;61;1309;-93
2021/03/23 09:17:36;1470038.00;4.90;2586.87;125409.00;0.42;217.41;;;;;12.00;1.00;;;;;;2266487;61;979;-92
2021/03/23 09:29:55;1332320.00;4.44;2331.38;131147.00;0.44;227.31;;;;;12.40;1.00;;;;;;2262673;61;969;-93
2021/03/23 09:39:48;1630528.00;5.44;2891.23;79168.00;0.26;137.60;;;;;13.60;1.00;;;;;;2270309;61;1002;-94
2021/03/23 10:05:16;1088840.00;3.63;1890.48;32661.00;0.11;57.19;;;;;14.70;1.00;;;;;;2499093;56;3790;31
2021/03/23 10:40:01;228826.00;0.76;395.53;0.00;0.00;0.62;;;;;12.80;1.00;;;;;;2267132;61;1205;-88
2021/03/23 10:42:29;133565.00;0.45;231.48;0.00;0.00;0.62;;;;;12.40;1.00;;;;;;2261767;61;1357;-88
2021/03/23 10:45:14;299438.00;1.00;516.95;0.00;0.00;0.62;;;;;12.00;1.00;;;;;;2265768;61;1609;-88
2021/03/23 10:47:45;108903.00;0.36;188.94;0.00;0.00;0.62;;;;;11.90;1.00;;;;;;2264936;61;1117;-88
2021/03/23 10:50:18;193761.00;0.65;335.18;0.00;0.00;0.62;;;;;11.80;1.00;;;;;;2259264;61;1179;-88
2021/03/23 10:52:44;119299.00;0.40;206.87;0.00;0.00;0.62;;;;;11.80;1.00;;;;;;2266379;61;1425;-87
2021/03/23 10:55:20;94170.00;0.31;163.51;0.00;0.00;0.62;;;;;12.20;1.00;;;;;;2253418;61;1078;-87
2021/03/23 10:57:47;103815.00;0.35;180.16;0.00;0.00;0.62;;;;;12.90;1.00;;;;;;2249818;61;1931;-86
2021/03/23 11:00:19;186843.00;0.62;323.27;0.00;0.00;0.62;;;;;12.80;1.00;;;;;;2250155;61;1129;-87
2021/03/23 11:02:45;98608.00;0.33;171.17;0.00;0.00;0.62;;;;;13.10;1.00;;;;;;2249193;61;1402;-87
2021/03/23 11:05:15;344529.00;1.15;594.46;0.00;0.00;0.62;;;;;13.10;1.00;;;;;;2244693;61;1181;-87
2021/03/23 11:07:58;133160.00;0.44;230.78;0.00;0.00;0.62;;;;;12.80;1.00;;;;;;2248962;61;1122;-87
2021/03/23 11:10:28;119962.00;0.40;208.02;0.00;0.00;0.62;;;;;12.90;1.00;;;;;;2245987;61;1082;-87
2021/03/23 11:12:55;331426.00;1.10;571.94;48500.00;0.16;84.59;;;;;12.80;1.00;;;;;;2248547;61;1342;-88
2021/03/23 11:15:22;90324.00;0.30;156.87;0.00;0.00;0.62;;;;;12.70;1.00;;;;;;2247894;61;1265;-89
2021/03/23 11:17:51;146553.00;0.49;253.87;0.00;0.00;0.62;;;;;12.70;1.00;;;;;;2258579;61;2009;-89
2021/03/23 11:20:26;123229.00;0.41;213.65;0.00;0.00;0.62;;;;;12.30;1.00;;;;;;2259412;61;1135;-90
2021/03/23 11:22:56;502771.00;1.68;866.59;0.00;0.00;0.62;;;;;12.40;1.00;;;;;;2259330;61;1405;-90
2021/03/23 11:25:26;210292.00;0.70;363.64;0.00;0.00;0.62;;;;;12.30;1.00;;;;;;2259882;61;1006;-91
2021/03/23 11:27:54;300306.00;1.00;518.45;0.00;0.00;0.62;;;;;12.20;1.00;;;;;;2253500;61;1001;-90
2021/03/23 11:30:21;534380.00;1.78;921.04;23048.00;0.08;40.55;;;;;12.20;1.00;;;;;;2261947;61;1624;-91
2021/03/23 11:32:49;295522.00;0.99;510.22;0.00;0.00;0.62;;;;;12.30;1.00;;;;;;2268097;61;1751;-91
2021/03/23 11:35:16;384603.00;1.28;663.34;67888.00;0.23;118.11;;;;;12.30;1.00;;;;;;2268107;61;1205;-90
2021/03/23 11:50:09;987600.00;3.29;1710.52;0.00;0.00;0.62;;;;;13.10;1.00;;;;;;2266469;61;1394;-91
2021/03/23 11:57:33;853185.00;2.84;1474.04;15736.00;0.05;27.89;;;;;12.60;1.00;;;;;;2265972;61;1380;-90
2021/03/23 12:00:00;176339.00;0.59;305.18;0.00;0.00;0.62;;;;;13.10;1.00;;;;;;2260090;61;1013;-90
2021/03/23 12:02:29;319385.00;1.06;551.24;47636.00;0.16;83.10;;;;;13.00;1.00;;;;;;2260086;61;1366;-90
2021/03/23 12:04:56;56963.00;0.19;99.23;0.00;0.00;0.62;;;;;13.00;1.00;;;;;;2256047;61;1041;-90
2021/03/23 12:07:39;279539.00;0.93;482.74;0.00;0.00;0.62;;;;;13.30;1.00;;;;;;2256069;61;1033;-90
2021/03/23 12:10:11;108770.00;0.36;188.71;0.00;0.00;0.62;;;;;13.40;1.00;;;;;;2256071;61;1756;-91
2021/03/23 12:12:43;68239.00;0.23;118.72;0.00;0.00;0.62;;;;;13.10;1.00;;;;;;2256166;61;1401;-91
2021/03/23 12:17:40;638390.00;2.13;1100.55;0.00;0.00;0.62;;;;;12.60;1.00;;;;;;2262078;61;1969;-91
2021/03/23 12:20:11;246730.00;0.82;426.33;0.00;0.00;0.62;;;;;12.80;1.00;;;;;;2260273;61;1032;-90
2021/03/23 12:22:39;237621.00;0.79;410.66;0.00;0.00;0.62;;;;;12.50;1.00;;;;;;2255944;61;1437;-91
2021/03/23 12:25:08;90254.00;0.30;156.75;0.00;0.00;0.62;;;;;12.70;1.00;;;;;;2252750;61;963;-90
2021/03/23 12:27:35;197941.00;0.66;342.38;0.00;0.00;0.62;;;;;12.70;1.00;;;;;;2246213;61;1059;-90
2021/03/23 12:30:03;448257.00;1.49;772.78;47361.00;0.16;82.62;;;;;12.90;1.00;;;;;;2256159;61;1158;-89
2021/03/23 12:32:30;317620.00;1.06;548.21;38666.00;0.13;67.58;;;;;13.00;1.00;;;;;;2248038;61;1308;-88
2021/03/23 12:34:57;136062.00;0.45;235.78;0.00;0.00;0.62;;;;;13.30;1.00;;;;;;2244756;61;985;-90
2021/03/23 12:37:24;215272.00;0.72;372.21;0.00;0.00;0.62;;;;;13.40;1.00;;;;;;2239986;62;1204;-90
2021/03/23 12:39:53;340915.00;1.14;588.25;0.00;0.00;0.62;;;;;13.30;1.00;;;;;;2240192;62;2007;-90
2021/03/23 12:42:22;70584.00;0.24;122.77;0.00;0.00;0.62;;;;;13.30;1.00;;;;;;2240169;62;1350;-88
2021/03/23 12:44:49;88519.00;0.30;153.75;0.00;0.00;0.62;;;;;13.60;1.00;;;;;;2240177;62;1043;-90
2021/03/23 12:47:15;132006.00;0.44;228.79;0.00;0.00;0.62;;;;;13.50;1.00;;;;;;2240134;62;1038;-89
2021/03/23 12:49:43;133920.00;0.45;232.09;0.00;0.00;0.62;;;;;12.80;1.00;;;;;;2240104;62;979;-91
2021/03/23 12:52:13;98024.00;0.33;170.16;0.00;0.00;0.62;;;;;12.80;1.00;;;;;;2240216;62;1445;-92
2021/03/23 12:54:44;192749.00;0.64;333.44;0.00;0.00;0.62;;;;;13.00;1.00;;;;;;2238091;61;1019;-91
2021/03/23 12:57:17;133732.00;0.45;231.76;0.00;0.00;0.62;;;;;13.10;1.00;;;;;;2242905;61;991;-87
2021/03/23 12:59:45;73783.00;0.25;128.30;0.00;0.00;0.62;;;;;13.50;1.00;;;;;;2240118;62;2039;-87